createdAt,value
2023-01-01T00:01:40.684Z,98246.13
2023-01-01T00:06:46.413Z,98227.69
2023-01-01T00:11:48.274Z,98239.50
2023-01-01T00:16:50.161Z,98241.88
2023-01-01T00:21:52.172Z,98239.56
2023-01-01T00:26:54.186Z,98245.97
2023-01-01T00:31:56.138Z,98247.56
2023-01-01T00:36:58.217Z,98249.97
2023-01-01T00:42:00.272Z,98259.03
2023-01-01T00:47:02.232Z,98259.41
2023-01-01T00:52:04.278Z,98268.41
2023-01-01T00:57:06.264Z,98269.63
2023-01-01T01:02:08.324Z,98268.84
2023-01-01T01:07:10.383Z,98260.25
2023-01-01T01:12:18.670Z,98260.66
2023-01-01T01:17:21.026Z,98275.91
2023-01-01T01:22:28.236Z,98281.03
2023-01-01T01:27:31.301Z,98277.91
2023-01-01T01:32:33.238Z,98293.19
2023-01-01T01:37:35.204Z,98289.25
2023-01-01T01:42:37.294Z,98290.06
2023-01-01T01:47:51.111Z,98293.19
2023-01-01T01:53:03.894Z,98295.16
2023-01-01T01:58:09.543Z,98294.78
2023-01-01T02:03:18.992Z,98303.41
2023-01-01T02:08:21.871Z,98292.78
2023-01-01T02:13:24.041Z,98294.41
2023-01-01T02:18:52.412Z,98287.75
2023-01-01T02:24:15.997Z,98290.91
2023-01-01T02:29:36.919Z,98286.19
2023-01-01T02:34:53.649Z,98291.69
2023-01-01T02:39:59.324Z,98289.75
2023-01-01T02:45:01.453Z,98292.91
2023-01-01T02:50:08.441Z,98294.03
2023-01-01T02:55:21.739Z,98286.19
2023-01-01T03:00:31.515Z,98291.66
2023-01-01T03:06:21.128Z,98286.94
2023-01-01T03:11:25.814Z,98278.31
2023-01-01T03:16:44.789Z,98278.41
2023-01-01T03:21:56.243Z,98271.38
2023-01-01T03:27:07.493Z,98280.38
2023-01-01T03:32:14.685Z,98279.97
2023-01-01T03:37:24.176Z,98272.97
2023-01-01T03:42:39.729Z,98271.31
2023-01-01T03:47:41.670Z,98270.97
2023-01-01T03:53:07.537Z,98271.31
2023-01-01T03:58:19.144Z,98279.56
2023-01-01T04:03:25.638Z,98269.34
2023-01-01T04:08:27.822Z,98276.75
2023-01-01T04:13:29.838Z,98281.44
2023-01-01T04:18:31.842Z,98282.22
2023-01-01T04:23:33.767Z,98288.44
2023-01-01T04:28:35.713Z,98286.13
2023-01-01T04:33:37.661Z,98290.03
2023-01-01T04:38:39.583Z,98297.03
2023-01-01T04:43:41.484Z,98298.19
2023-01-01T04:48:43.616Z,98298.59
2023-01-01T04:53:45.900Z,98311.16
2023-01-01T04:58:48.508Z,98304.06
2023-01-01T05:03:50.801Z,98301.72
2023-01-01T05:08:56.724Z,98305.72
2023-01-01T05:14:01.044Z,98302.22
2023-01-01T05:19:04.151Z,98308.13
2023-01-01T05:24:09.289Z,98304.25
2023-01-01T05:29:16.538Z,98313.22
2023-01-01T05:34:19.467Z,98312.81
2023-01-01T05:39:21.276Z,98313.69
2023-01-01T05:44:23.358Z,98312.13
2023-01-01T05:49:25.152Z,98315.28
2023-01-01T05:54:26.944Z,98338.81
2023-01-01T05:59:28.745Z,98333.34
2023-01-01T06:04:30.631Z,98338.84
2023-01-01T06:09:32.495Z,98331.81
2023-01-01T06:14:34.293Z,98339.28
2023-01-01T06:19:36.161Z,98331.44
2023-01-01T06:24:39.250Z,98342.84
2023-01-01T06:29:41.473Z,98348.31
2023-01-01T06:34:43.399Z,98353.03
2023-01-01T06:39:46.330Z,98346.38
2023-01-01T06:44:48.196Z,98354.59
2023-01-01T06:49:50.030Z,98353.03
2023-01-01T06:54:51.865Z,98355.41
2023-01-01T06:59:53.719Z,98365.56
2023-01-01T07:04:55.992Z,98378.50
2023-01-01T07:09:57.803Z,98380.44
2023-01-01T07:14:59.681Z,98386.72
2023-01-01T07:20:01.490Z,98396.06
2023-01-01T07:25:03.861Z,98397.63
2023-01-01T07:30:06.518Z,98395.69
2023-01-01T07:35:08.694Z,98397.63
2023-01-01T07:40:11.284Z,98412.53
2023-01-01T07:45:14.355Z,98430.16
2023-01-01T07:50:19.643Z,98429.75
2023-01-01T07:55:22.043Z,98443.84
2023-01-01T08:00:23.971Z,98442.69
2023-01-01T08:05:27.136Z,98445.38
2023-01-01T08:10:29.277Z,98481.03
2023-01-01T08:15:31.391Z,98472.81
2023-01-01T08:20:34.071Z,98479.88
2023-01-01T08:25:38.156Z,98477.50
2023-01-01T08:30:40.107Z,98489.63
2023-01-01T08:35:44.144Z,98480.63
2023-01-01T08:40:48.495Z,98497.88
2023-01-01T08:45:50.380Z,98502.56
2023-01-01T08:50:56.515Z,98489.66
2023-01-01T08:56:06.743Z,98491.19
2023-01-01T09:01:09.669Z,98493.53
2023-01-01T09:06:11.526Z,98504.50
2023-01-01T09:11:26.477Z,98493.13
2023-01-01T09:16:28.464Z,98511.53
2023-01-01T09:21:30.401Z,98523.69
2023-01-01T09:26:32.230Z,98522.91
2023-01-01T09:31:34.129Z,98526.06
2023-01-01T09:36:36.184Z,98541.72
2023-01-01T09:41:51.154Z,98530.72
2023-01-01T09:46:58.337Z,98525.25
2023-01-01T09:52:05.387Z,98522.13
2023-01-01T09:57:18.054Z,98532.28
2023-01-01T10:02:53.502Z,98524.84
2023-01-01T10:08:40.015Z,98528.34
2023-01-01T10:13:44.015Z,98525.97
2023-01-01T10:18:47.955Z,98527.50
2023-01-01T10:24:06.394Z,98542.44
2023-01-01T10:29:22.389Z,98529.88
2023-01-01T10:34:28.149Z,98540.84
2023-01-01T10:39:30.372Z,98545.13
2023-01-01T10:44:34.732Z,98548.66
2023-01-01T10:49:54.865Z,98535.72
2023-01-01T10:54:56.788Z,98531.41
2023-01-01T11:00:09.881Z,98514.94
2023-01-01T11:05:22.211Z,98534.50
2023-01-01T11:10:31.248Z,98531.38
2023-01-01T11:15:42.341Z,98540.72
2023-01-01T11:20:44.544Z,98543.03
2023-01-01T11:26:17.527Z,98540.63
2023-01-01T11:31:20.430Z,98558.63
2023-01-01T11:36:29.794Z,98531.91
2023-01-01T11:41:48.195Z,98516.19
2023-01-01T11:46:50.349Z,98510.72
2023-01-01T11:51:52.563Z,98522.09
2023-01-01T11:57:03.300Z,98517.06
2023-01-01T12:02:13.878Z,98511.56
2023-01-01T12:07:28.382Z,98512.34
2023-01-01T12:12:42.659Z,98511.56
2023-01-01T12:17:52.087Z,98506.91
2023-01-01T12:22:59.172Z,98503.00
2023-01-01T12:28:00.938Z,98497.50
2023-01-01T12:33:19.556Z,98495.50
2023-01-01T12:38:47.625Z,98492.75
2023-01-01T12:44:01.272Z,98492.78
2023-01-01T12:49:42.070Z,98501.41
2023-01-01T12:54:59.019Z,98501.44
2023-01-01T13:00:04.644Z,98495.16
2023-01-01T13:05:17.329Z,98478.28
2023-01-01T13:10:26.653Z,98468.47
2023-01-01T13:15:37.345Z,98486.53
2023-01-01T13:20:45.491Z,98477.19
2023-01-01T13:25:47.304Z,98478.03
2023-01-01T13:30:50.080Z,98478.09
2023-01-01T13:36:12.924Z,98475.75
2023-01-01T13:41:26.980Z,98479.28
2023-01-01T13:46:40.591Z,98497.72
2023-01-01T13:52:05.279Z,98502.44
2023-01-01T13:57:38.764Z,98485.16
2023-01-01T14:02:50.185Z,98508.72
2023-01-01T14:07:54.518Z,98507.94
2023-01-01T14:13:16.239Z,98520.47
2023-01-01T14:18:19.851Z,98528.31
2023-01-01T14:23:37.417Z,98545.19
2023-01-01T14:28:40.065Z,98553.44
2023-01-01T14:33:42.041Z,98554.63
2023-01-01T14:38:45.957Z,98566.78
2023-01-01T14:43:50.347Z,98562.09
2023-01-01T14:48:56.098Z,98589.91
2023-01-01T14:54:03.450Z,98588.75
2023-01-01T14:59:34.471Z,98596.94
2023-01-01T15:04:36.370Z,98623.19
2023-01-01T15:09:38.207Z,98612.97
2023-01-01T15:14:45.869Z,98603.59
2023-01-01T15:20:06.285Z,98609.44
2023-01-01T15:25:14.118Z,98619.25
2023-01-01T15:30:28.704Z,98614.50
2023-01-01T15:35:33.666Z,98619.56
2023-01-01T15:40:36.478Z,98612.91
2023-01-01T15:45:40.355Z,98593.31
2023-01-01T15:50:51.321Z,98587.81
2023-01-01T15:55:59.573Z,98587.00
2023-01-01T16:01:09.461Z,98593.25
2023-01-01T16:06:22.249Z,98608.13
2023-01-01T16:11:24.807Z,98610.88
2023-01-01T16:16:30.333Z,98610.50
2023-01-01T16:21:33.776Z,98614.44
2023-01-01T16:26:36.427Z,98626.94
2023-01-01T16:31:40.055Z,98623.78
2023-01-01T16:36:43.645Z,98619.84
2023-01-01T16:41:45.931Z,98626.13
2023-01-01T16:46:48.242Z,98626.09
2023-01-01T16:51:52.060Z,98633.13
2023-01-01T16:56:54.684Z,98626.47
2023-01-01T17:01:57.284Z,98619.78
2023-01-01T17:06:59.303Z,98619.41
2023-01-01T17:12:02.854Z,98621.34
2023-01-01T17:17:04.696Z,98622.91
2023-01-01T17:22:06.753Z,98613.53
2023-01-01T17:27:08.608Z,98629.19
2023-01-01T17:32:10.481Z,98619.44
2023-01-01T17:37:12.354Z,98611.19
2023-01-01T17:42:14.177Z,98608.84
2023-01-01T17:47:16.200Z,98602.59
2023-01-01T17:52:18.185Z,98617.44
2023-01-01T17:57:20.847Z,98603.38
2023-01-01T18:02:22.934Z,98617.44
2023-01-01T18:07:24.947Z,98601.44
2023-01-01T18:12:27.249Z,98607.69
2023-01-01T18:17:29.551Z,98617.88
2023-01-01T18:22:31.913Z,98619.88
2023-01-01T18:27:34.269Z,98626.88
2023-01-01T18:32:36.676Z,98621.44
2023-01-01T18:37:38.718Z,98625.75
2023-01-01T18:43:18.999Z,98626.94
2023-01-01T18:48:22.325Z,98630.81
2023-01-01T18:53:24.490Z,98629.25
2023-01-01T18:58:26.819Z,98628.47
2023-01-01T19:03:29.018Z,98619.09
2023-01-01T19:08:31.399Z,98627.31
2023-01-01T19:13:40.476Z,98615.19
2023-01-01T19:18:44.903Z,98622.25
2023-01-01T19:23:52.351Z,98621.88
2023-01-01T19:29:18.508Z,98613.66
2023-01-01T19:34:21.278Z,98615.22
2023-01-01T19:39:24.878Z,98608.97
2023-01-01T19:44:27.091Z,98617.59
2023-01-01T19:49:29.192Z,98614.44
2023-01-01T19:54:31.314Z,98619.16
2023-01-01T19:59:33.825Z,98609.38
2023-01-01T20:04:35.810Z,98605.84
2023-01-01T20:09:37.764Z,98608.56
2023-01-01T20:14:39.682Z,98605.06
2023-01-01T20:19:42.568Z,98597.22
2023-01-01T20:24:47.642Z,98588.25
2023-01-01T20:29:49.727Z,98594.53
2023-01-01T20:34:52.918Z,98600.00
2023-01-01T20:39:54.974Z,98578.91
2023-01-01T20:44:56.830Z,98575.00
2023-01-01T20:49:58.849Z,98581.25
2023-01-01T20:55:00.684Z,98584.75
2023-01-01T21:00:02.787Z,98571.81
2023-01-01T21:05:04.998Z,98563.59
2023-01-01T21:10:07.624Z,98560.81
2023-01-01T21:15:15.527Z,98562.00
2023-01-01T21:20:17.622Z,98553.34
2023-01-01T21:25:50.336Z,98542.03
2023-01-01T21:30:57.065Z,98535.34
2023-01-01T21:36:05.544Z,98526.75
2023-01-01T21:41:20.109Z,98526.00
2023-01-01T21:46:25.083Z,98513.09
2023-01-01T21:51:41.073Z,98509.56
2023-01-01T21:56:49.517Z,98503.69
2023-01-01T22:01:53.268Z,98496.28
2023-01-01T22:07:00.180Z,98497.06
2023-01-01T22:12:14.266Z,98497.06
2023-01-01T22:17:28.591Z,98487.66
2023-01-01T22:22:34.564Z,98486.47
2023-01-01T22:27:37.532Z,98483.75
2023-01-01T22:32:39.503Z,98488.06
2023-01-01T22:37:41.821Z,98472.00
2023-01-01T22:42:43.641Z,98476.69
2023-01-01T22:47:45.687Z,98478.25
2023-01-01T22:52:47.541Z,98474.34
2023-01-01T22:57:49.679Z,98481.00
2023-01-01T23:02:51.612Z,98457.91
2023-01-01T23:07:53.772Z,98442.25
2023-01-01T23:12:55.604Z,98429.75
2023-01-01T23:17:57.427Z,98433.66
2023-01-01T23:22:59.297Z,98427.03
2023-01-01T23:28:01.458Z,98423.09
2023-01-01T23:33:03.506Z,98415.25
2023-01-01T23:38:05.318Z,98417.19
2023-01-01T23:43:07.267Z,98409.69
2023-01-01T23:48:09.512Z,98408.88
2023-01-01T23:53:11.391Z,98410.84
2023-01-01T23:58:13.208Z,98407.25
